createdAt,value
2022-12-23T00:01:09.439Z,4.10
2022-12-23T00:03:36.458Z,4.00
2022-12-23T00:06:09.457Z,4.00
2022-12-23T00:08:36.891Z,4.00
2022-12-23T00:11:10.252Z,4.00
2022-12-23T00:13:55.811Z,4.00
2022-12-23T00:16:22.897Z,4.00
2022-12-23T00:18:49.972Z,4.00
2022-12-23T00:21:17.856Z,4.00
2022-12-23T00:23:47.645Z,4.00
2022-12-23T00:26:26.747Z,3.90
2022-12-23T00:28:57.800Z,3.90
2022-12-23T00:31:25.608Z,3.90
2022-12-23T00:33:54.388Z,3.90
2022-12-23T00:36:23.426Z,3.90
2022-12-23T00:39:09.125Z,3.90
2022-12-23T00:41:55.048Z,3.90
2022-12-23T00:44:22.346Z,3.90
2022-12-23T00:46:49.916Z,3.90
2022-12-23T00:49:38.370Z,3.90
2022-12-23T00:52:07.757Z,3.90
2022-12-23T00:54:34.746Z,3.90
2022-12-23T00:57:02.162Z,3.90
2022-12-23T00:59:30.049Z,3.90
2022-12-23T01:02:15.784Z,3.90
2022-12-23T01:05:01.449Z,3.90
2022-12-23T01:07:28.272Z,3.90
2022-12-23T01:09:55.393Z,3.90
2022-12-23T01:12:22.260Z,3.90
2022-12-23T01:14:49.364Z,3.90
2022-12-23T01:17:16.386Z,3.90
2022-12-23T01:19:43.892Z,3.90
2022-12-23T01:22:11.392Z,3.90
2022-12-23T01:24:38.288Z,3.90
2022-12-23T01:27:05.213Z,3.90
2022-12-23T01:29:32.235Z,3.90
2022-12-23T01:31:59.119Z,3.80
2022-12-23T01:34:31.076Z,3.80
2022-12-23T01:37:01.414Z,3.80
2022-12-23T01:39:28.328Z,3.80
2022-12-23T01:42:14.076Z,3.80
2022-12-23T01:45:00.754Z,3.80
2022-12-23T01:47:50.520Z,3.90
2022-12-23T01:50:38.490Z,3.90
2022-12-23T01:53:26.478Z,3.90
2022-12-23T01:56:12.844Z,3.90
2022-12-23T01:58:49.053Z,3.90
2022-12-23T02:01:35.163Z,3.90
2022-12-23T02:04:06.044Z,3.90
2022-12-23T02:06:58.195Z,3.90
2022-12-23T02:09:31.636Z,3.90
2022-12-23T02:12:01.341Z,4.00
2022-12-23T02:15:05.653Z,3.90
2022-12-23T02:17:41.681Z,3.90
2022-12-23T02:20:22.895Z,3.90
2022-12-23T02:22:58.654Z,3.90
2022-12-23T02:25:53.203Z,3.90
2022-12-23T02:28:32.379Z,3.90
2022-12-23T02:31:11.764Z,3.90
2022-12-23T02:33:41.450Z,3.90
2022-12-23T02:36:17.934Z,4.00
2022-12-23T02:38:53.989Z,3.90
2022-12-23T02:41:50.857Z,3.90
2022-12-23T02:44:36.495Z,3.90
2022-12-23T02:47:12.071Z,3.90
2022-12-23T02:49:42.447Z,3.90
2022-12-23T02:52:14.373Z,3.90
2022-12-23T02:55:13.588Z,3.90
2022-12-23T02:57:45.722Z,4.00
2022-12-23T03:00:15.420Z,4.00
2022-12-23T03:02:43.698Z,4.00
2022-12-23T03:05:47.034Z,3.90
2022-12-23T03:08:39.515Z,3.90
2022-12-23T03:11:10.751Z,3.90
2022-12-23T03:14:21.762Z,3.90
2022-12-23T03:17:08.832Z,3.90
2022-12-23T03:20:25.875Z,3.90
2022-12-23T03:23:19.655Z,3.90
2022-12-23T03:25:57.974Z,3.90
2022-12-23T03:28:35.366Z,3.90
2022-12-23T03:31:04.038Z,3.90
2022-12-23T03:33:43.808Z,3.90
2022-12-23T03:36:17.962Z,3.90
2022-12-23T03:38:46.033Z,3.90
2022-12-23T03:41:35.917Z,3.80
2022-12-23T03:44:34.917Z,3.90
2022-12-23T03:47:05.107Z,3.90
2022-12-23T03:49:38.012Z,3.90
2022-12-23T03:52:21.006Z,3.90
2022-12-23T03:54:58.120Z,3.90
2022-12-23T03:57:50.579Z,3.90
2022-12-23T04:00:17.577Z,3.90
2022-12-23T04:03:09.126Z,3.90
2022-12-23T04:05:41.419Z,3.90
2022-12-23T04:08:46.245Z,3.90
2022-12-23T04:11:13.638Z,3.90
2022-12-23T04:13:40.711Z,3.90
2022-12-23T04:16:08.311Z,3.90
2022-12-23T04:18:35.209Z,3.90
2022-12-23T04:21:02.181Z,3.90
2022-12-23T04:23:29.473Z,3.90
2022-12-23T04:25:56.449Z,3.90
2022-12-23T04:28:23.336Z,3.90
2022-12-23T04:30:50.126Z,3.90
2022-12-23T04:33:17.006Z,3.90
2022-12-23T04:35:43.899Z,3.90
2022-12-23T04:38:10.819Z,3.90
2022-12-23T04:40:37.808Z,3.90
2022-12-23T04:43:04.701Z,3.90
2022-12-23T04:45:32.672Z,3.90
2022-12-23T04:47:59.874Z,3.90
2022-12-23T04:50:26.671Z,3.80
2022-12-23T04:52:53.547Z,3.80
2022-12-23T04:55:20.501Z,3.80
2022-12-23T04:57:47.617Z,3.90
2022-12-23T05:00:16.269Z,3.90
2022-12-23T05:02:43.642Z,3.90
2022-12-23T05:05:10.747Z,3.90
2022-12-23T05:07:37.559Z,3.90
2022-12-23T05:10:04.988Z,3.90
2022-12-23T05:12:32.046Z,3.90
2022-12-23T05:14:59.145Z,3.90
2022-12-23T05:17:26.178Z,3.90
2022-12-23T05:19:53.183Z,3.90
2022-12-23T05:22:20.066Z,3.90
2022-12-23T05:24:47.685Z,3.90
2022-12-23T05:27:14.665Z,3.90
2022-12-23T05:29:41.724Z,3.90
2022-12-23T05:32:08.916Z,3.90
2022-12-23T05:34:36.049Z,3.90
2022-12-23T05:37:03.026Z,3.90
2022-12-23T05:39:29.909Z,3.90
2022-12-23T05:41:56.776Z,3.90
2022-12-23T05:44:23.780Z,3.80
2022-12-23T05:46:53.598Z,3.80
2022-12-23T05:49:22.887Z,3.90
2022-12-23T05:51:49.927Z,3.80
2022-12-23T05:54:16.949Z,3.80
2022-12-23T05:56:44.031Z,3.80
2022-12-23T05:59:11.365Z,3.80
2022-12-23T06:01:38.566Z,3.80
2022-12-23T06:04:05.805Z,3.80
2022-12-23T06:06:32.951Z,3.80
2022-12-23T06:09:00.362Z,3.80
2022-12-23T06:11:28.343Z,3.80
2022-12-23T06:13:55.206Z,3.80
2022-12-23T06:16:22.224Z,3.80
2022-12-23T06:18:49.260Z,3.70
2022-12-23T06:21:16.172Z,3.70
2022-12-23T06:23:43.172Z,3.60
2022-12-23T06:26:10.174Z,3.60
2022-12-23T06:28:37.219Z,3.60
2022-12-23T06:31:04.471Z,3.60
2022-12-23T06:33:31.384Z,3.60
2022-12-23T06:35:58.463Z,3.60
2022-12-23T06:38:25.501Z,3.60
2022-12-23T06:40:52.283Z,3.60
2022-12-23T06:43:19.097Z,3.60
2022-12-23T06:45:49.497Z,3.60
2022-12-23T06:48:16.886Z,3.60
2022-12-23T06:50:46.877Z,3.60
2022-12-23T06:53:14.601Z,3.60
2022-12-23T06:55:41.692Z,3.60
2022-12-23T06:58:08.697Z,3.50
2022-12-23T07:00:37.197Z,3.50
2022-12-23T07:03:06.286Z,3.60
2022-12-23T07:05:37.368Z,3.60
2022-12-23T07:08:05.510Z,3.60
2022-12-23T07:10:33.505Z,3.70
2022-12-23T07:13:03.006Z,3.70
2022-12-23T07:15:30.207Z,3.70
2022-12-23T07:17:57.085Z,3.70
2022-12-23T07:20:24.086Z,3.70
2022-12-23T07:22:51.132Z,3.80
2022-12-23T07:25:18.003Z,3.80
2022-12-23T07:27:44.835Z,3.80
2022-12-23T07:30:12.040Z,3.80
2022-12-23T07:32:38.956Z,3.90
2022-12-23T07:35:06.563Z,3.90
2022-12-23T07:37:33.581Z,4.00
2022-12-23T07:40:06.518Z,3.90
2022-12-23T07:42:50.918Z,3.90
2022-12-23T07:45:17.740Z,4.00
2022-12-23T07:47:44.640Z,4.00
2022-12-23T07:50:12.537Z,4.00
2022-12-23T07:52:40.113Z,4.00
2022-12-23T07:55:07.507Z,4.00
2022-12-23T07:57:38.293Z,4.10
2022-12-23T08:00:07.533Z,4.00
2022-12-23T08:02:34.531Z,4.00
2022-12-23T08:05:01.565Z,4.00
2022-12-23T08:07:28.633Z,4.00
2022-12-23T08:09:55.427Z,4.00
2022-12-23T08:12:22.359Z,4.00
2022-12-23T08:14:50.640Z,4.10
2022-12-23T08:17:17.583Z,4.10
2022-12-23T08:19:44.526Z,4.10
2022-12-23T08:22:11.461Z,4.10
2022-12-23T08:24:38.272Z,4.20
2022-12-23T08:27:05.102Z,4.20
2022-12-23T08:29:36.242Z,4.20
2022-12-23T08:32:03.647Z,4.20
2022-12-23T08:34:30.445Z,4.20
2022-12-23T08:36:57.414Z,4.30
2022-12-23T08:39:26.662Z,4.30
2022-12-23T08:41:53.891Z,4.20
2022-12-23T08:44:21.654Z,4.10
2022-12-23T08:46:48.741Z,4.10
2022-12-23T08:49:15.707Z,4.00
2022-12-23T08:51:42.581Z,4.00
2022-12-23T08:54:11.853Z,3.90
2022-12-23T08:56:41.519Z,3.90
2022-12-23T08:59:19.304Z,3.90
2022-12-23T09:01:48.052Z,3.90
2022-12-23T09:04:15.317Z,3.90
2022-12-23T09:06:43.254Z,3.90
2022-12-23T09:09:12.412Z,3.90
2022-12-23T09:11:39.207Z,3.90
2022-12-23T09:14:08.587Z,3.90
2022-12-23T09:16:36.168Z,3.90
2022-12-23T09:19:03.420Z,3.90
2022-12-23T09:21:30.248Z,3.90
2022-12-23T09:23:57.011Z,3.90
2022-12-23T09:26:26.357Z,3.90
2022-12-23T09:28:54.035Z,4.00
2022-12-23T09:31:21.658Z,3.90
2022-12-23T09:33:50.551Z,3.90
2022-12-23T09:36:18.422Z,3.90
2022-12-23T09:38:45.611Z,3.90
2022-12-23T09:41:20.772Z,3.90
2022-12-23T09:44:25.072Z,3.80
2022-12-23T09:47:04.071Z,3.90
2022-12-23T09:49:31.374Z,3.90
2022-12-23T09:52:02.825Z,3.90
2022-12-23T09:54:37.984Z,3.90
2022-12-23T09:57:26.066Z,4.00
2022-12-23T10:00:20.184Z,4.00
2022-12-23T10:03:16.601Z,4.00
2022-12-23T10:06:12.938Z,4.10
2022-12-23T10:08:44.552Z,4.20
2022-12-23T10:11:47.339Z,4.10
2022-12-23T10:14:27.946Z,4.10
2022-12-23T10:17:12.327Z,4.20
2022-12-23T10:19:43.518Z,4.10
2022-12-23T10:22:37.620Z,4.20
2022-12-23T10:25:24.773Z,4.20
2022-12-23T10:27:51.670Z,4.20
2022-12-23T10:30:51.465Z,4.30
2022-12-23T10:33:22.609Z,4.30
2022-12-23T10:36:09.553Z,4.30
2022-12-23T10:38:54.971Z,4.40
2022-12-23T10:41:40.778Z,4.40
2022-12-23T10:44:37.958Z,4.50
2022-12-23T10:47:13.671Z,4.50
2022-12-23T10:50:29.006Z,4.60
2022-12-23T10:52:57.892Z,4.70
2022-12-23T10:55:34.030Z,4.60
2022-12-23T10:58:20.661Z,4.50
2022-12-23T11:00:59.848Z,4.50
2022-12-23T11:03:31.663Z,4.50
2022-12-23T11:06:00.588Z,4.50
2022-12-23T11:08:30.721Z,4.50
2022-12-23T11:11:00.231Z,4.50
2022-12-23T11:13:40.803Z,4.60
2022-12-23T11:16:28.931Z,4.70
2022-12-23T11:19:01.104Z,4.70
2022-12-23T11:21:29.886Z,4.70
2022-12-23T11:24:10.202Z,4.80
2022-12-23T11:26:37.260Z,4.80
2022-12-23T11:29:18.477Z,4.80
2022-12-23T11:31:45.514Z,4.80
2022-12-23T11:34:22.632Z,4.90
2022-12-23T11:37:03.679Z,5.00
2022-12-23T11:39:36.441Z,4.90
2022-12-23T11:42:15.641Z,5.00
2022-12-23T11:44:48.690Z,4.90
2022-12-23T11:47:33.707Z,4.90
2022-12-23T11:50:03.808Z,4.80
2022-12-23T11:52:33.513Z,4.90
2022-12-23T11:55:02.458Z,4.80
2022-12-23T11:57:37.343Z,4.80
2022-12-23T12:00:07.125Z,4.80
2022-12-23T12:02:43.175Z,4.70
2022-12-23T12:05:38.896Z,4.70
2022-12-23T12:08:21.620Z,4.70
2022-12-23T12:10:52.598Z,4.60
2022-12-23T12:13:32.424Z,4.60
2022-12-23T12:16:24.214Z,4.60
2022-12-23T12:18:55.701Z,4.50
2022-12-23T12:21:29.239Z,4.50
2022-12-23T12:24:23.441Z,4.50
2022-12-23T12:26:54.292Z,4.50
2022-12-23T12:29:27.063Z,4.40
2022-12-23T12:31:57.031Z,4.40
2022-12-23T12:34:57.025Z,4.40
2022-12-23T12:37:35.809Z,4.40
2022-12-23T12:40:37.531Z,4.40
2022-12-23T12:43:07.091Z,4.40
2022-12-23T12:45:42.134Z,4.40
2022-12-23T12:48:24.069Z,4.30
2022-12-23T12:51:15.518Z,4.30
2022-12-23T12:54:06.613Z,4.30
2022-12-23T12:56:57.225Z,4.30
2022-12-23T12:59:31.064Z,4.20
2022-12-23T13:02:28.515Z,4.30
2022-12-23T13:05:32.845Z,4.30
2022-12-23T13:08:05.191Z,4.30
2022-12-23T13:10:47.214Z,4.30
2022-12-23T13:13:52.239Z,4.30
2022-12-23T13:16:28.869Z,4.40
2022-12-23T13:19:04.274Z,4.40
2022-12-23T13:21:51.105Z,4.40
2022-12-23T13:24:43.662Z,4.50
2022-12-23T13:27:22.222Z,4.50
2022-12-23T13:30:13.215Z,4.40
2022-12-23T13:32:59.808Z,4.50
2022-12-23T13:35:39.102Z,4.50
2022-12-23T13:38:41.443Z,4.50
2022-12-23T13:41:48.977Z,4.50
2022-12-23T13:44:18.794Z,4.50
2022-12-23T13:47:06.729Z,4.60
2022-12-23T13:49:56.188Z,4.60
2022-12-23T13:52:47.642Z,4.60
2022-12-23T13:55:52.924Z,4.60
2022-12-23T13:58:33.271Z,4.60
2022-12-23T14:01:09.275Z,4.60
2022-12-23T14:03:38.353Z,4.60
2022-12-23T14:06:24.205Z,4.60
2022-12-23T14:08:52.711Z,4.60
2022-12-23T14:11:19.661Z,4.60
2022-12-23T14:13:58.701Z,4.50
2022-12-23T14:16:58.156Z,4.50
2022-12-23T14:20:03.450Z,4.50
2022-12-23T14:22:48.637Z,4.50
2022-12-23T14:25:27.161Z,4.50
2022-12-23T14:28:12.453Z,4.40
2022-12-23T14:30:44.978Z,4.50
2022-12-23T14:33:26.993Z,4.50
2022-12-23T14:36:13.681Z,4.50
2022-12-23T14:38:41.029Z,4.60
2022-12-23T14:41:37.795Z,4.70
2022-12-23T14:44:22.021Z,4.70
2022-12-23T14:46:49.288Z,4.70
2022-12-23T14:49:43.042Z,4.60
2022-12-23T14:52:44.387Z,4.70
2022-12-23T14:55:31.976Z,4.60
2022-12-23T14:58:20.079Z,4.60
2022-12-23T15:00:52.061Z,4.60
2022-12-23T15:03:20.181Z,4.60
2022-12-23T15:05:47.477Z,4.60
2022-12-23T15:08:38.134Z,4.60
2022-12-23T15:11:06.945Z,4.60
2022-12-23T15:13:34.139Z,4.60
2022-12-23T15:16:02.205Z,4.50
2022-12-23T15:18:29.756Z,4.50
2022-12-23T15:21:10.716Z,4.50
2022-12-23T15:23:37.505Z,4.60
2022-12-23T15:26:04.345Z,4.60
2022-12-23T15:28:39.219Z,4.60
2022-12-23T15:31:07.652Z,4.60
2022-12-23T15:34:02.097Z,4.60
2022-12-23T15:36:30.883Z,4.60
2022-12-23T15:38:59.781Z,4.60
2022-12-23T15:41:29.356Z,4.60
2022-12-23T15:44:02.847Z,4.60
2022-12-23T15:46:32.298Z,4.60
2022-12-23T15:49:01.827Z,4.60
2022-12-23T15:54:34.149Z,4.60
2022-12-23T15:57:16.132Z,4.60
2022-12-23T15:59:54.591Z,4.70
2022-12-23T16:05:43.358Z,4.70
2022-12-23T16:08:26.576Z,4.70
2022-12-23T16:11:23.283Z,4.70
2022-12-23T16:14:03.477Z,4.70
2022-12-23T16:16:41.289Z,4.80
2022-12-23T16:19:39.584Z,4.70
2022-12-23T16:22:26.408Z,4.70
2022-12-23T16:25:20.547Z,4.70
2022-12-23T16:27:58.744Z,4.80
2022-12-23T16:30:35.705Z,4.80
2022-12-23T16:33:07.043Z,4.80
2022-12-23T16:35:36.807Z,4.80
2022-12-23T16:38:26.746Z,4.80
2022-12-23T16:40:55.956Z,4.90
2022-12-23T16:43:25.617Z,4.80
2022-12-23T16:45:55.924Z,4.90
2022-12-23T16:48:39.245Z,4.80
2022-12-23T16:51:14.296Z,4.90
2022-12-23T16:53:41.465Z,4.90
2022-12-23T16:56:17.370Z,4.90
2022-12-23T16:58:44.814Z,4.90
2022-12-23T17:01:15.180Z,4.80
2022-12-23T17:03:42.094Z,4.80
2022-12-23T17:06:14.415Z,4.80
2022-12-23T17:08:42.038Z,4.80
2022-12-23T17:11:16.202Z,4.80
2022-12-23T17:13:43.262Z,4.80
2022-12-23T17:16:15.715Z,4.80
2022-12-23T17:18:42.587Z,4.80
2022-12-23T17:21:26.076Z,4.80
2022-12-23T17:23:54.397Z,4.80
2022-12-23T17:26:22.662Z,4.80
2022-12-23T17:28:49.935Z,4.80
2022-12-23T17:31:25.998Z,4.80
2022-12-23T17:33:54.538Z,4.90
2022-12-23T17:36:21.825Z,4.90
2022-12-23T17:38:49.469Z,4.90
2022-12-23T17:41:31.188Z,4.90
2022-12-23T17:43:58.754Z,4.90
2022-12-23T17:46:26.472Z,4.90
2022-12-23T17:48:53.631Z,4.90
2022-12-23T17:51:23.167Z,4.80
2022-12-23T17:53:56.891Z,4.90
2022-12-23T17:56:26.425Z,4.90
2022-12-23T17:58:53.598Z,4.80
2022-12-23T18:01:27.442Z,4.90
2022-12-23T18:03:55.848Z,4.90
2022-12-23T18:06:24.361Z,4.80
2022-12-23T18:08:51.282Z,4.90
2022-12-23T18:11:39.450Z,4.90
2022-12-23T18:14:13.053Z,4.80
2022-12-23T18:16:44.909Z,4.80
2022-12-23T18:19:20.604Z,4.80
2022-12-23T18:21:48.028Z,4.80
2022-12-23T18:24:15.531Z,4.80
2022-12-23T18:26:43.007Z,4.80
2022-12-23T18:29:10.397Z,4.70
2022-12-23T18:31:46.721Z,4.70
2022-12-23T18:34:17.982Z,4.70
2022-12-23T18:36:45.524Z,4.70
2022-12-23T18:39:12.502Z,4.70
2022-12-23T18:41:39.416Z,4.70
2022-12-23T18:44:06.223Z,4.70
2022-12-23T18:46:33.133Z,4.70
2022-12-23T18:49:00.159Z,4.70
2022-12-23T18:51:26.962Z,4.60
2022-12-23T18:53:53.973Z,4.60
2022-12-23T18:56:24.121Z,4.70
2022-12-23T18:58:50.966Z,4.60
2022-12-23T19:01:19.122Z,4.60
2022-12-23T19:03:46.636Z,4.60
2022-12-23T19:06:14.733Z,4.60
2022-12-23T19:08:43.161Z,4.60
2022-12-23T19:11:15.284Z,4.70
2022-12-23T19:13:42.105Z,4.60
2022-12-23T19:16:13.247Z,4.60
2022-12-23T19:18:40.128Z,4.60
2022-12-23T19:21:06.965Z,4.60
2022-12-23T19:23:33.775Z,4.50
2022-12-23T19:26:00.661Z,4.60
2022-12-23T19:28:30.092Z,4.50
2022-12-23T19:31:00.152Z,4.50
2022-12-23T19:33:27.977Z,4.50
2022-12-23T19:35:54.834Z,4.50
2022-12-23T19:38:21.668Z,4.40
2022-12-23T19:40:57.554Z,4.40
2022-12-23T19:43:24.448Z,4.40
2022-12-23T19:46:17.732Z,4.40
2022-12-23T19:48:51.549Z,4.40
2022-12-23T19:51:18.521Z,4.40
2022-12-23T19:53:46.099Z,4.40
2022-12-23T19:56:15.909Z,4.40
2022-12-23T19:58:44.155Z,4.40
2022-12-23T20:01:19.355Z,4.50
2022-12-23T20:03:47.604Z,4.50
2022-12-23T20:06:18.401Z,4.50
2022-12-23T20:08:45.450Z,4.50
2022-12-23T20:11:15.568Z,4.50
2022-12-23T20:13:42.444Z,4.50
2022-12-23T20:16:09.690Z,4.50
2022-12-23T20:18:37.130Z,4.50
2022-12-23T20:21:05.009Z,4.50
2022-12-23T20:23:31.891Z,4.50
2022-12-23T20:25:58.857Z,4.50
2022-12-23T20:28:25.744Z,4.50
2022-12-23T20:31:20.199Z,4.40
2022-12-23T20:33:49.157Z,4.50
2022-12-23T20:36:18.968Z,4.50
2022-12-23T20:38:47.373Z,4.50
2022-12-23T20:41:16.927Z,4.50
2022-12-23T20:43:46.122Z,4.40
2022-12-23T20:46:20.477Z,4.40
2022-12-23T20:48:48.205Z,4.40
2022-12-23T20:51:19.322Z,4.40
2022-12-23T20:53:46.479Z,4.40
2022-12-23T20:56:16.605Z,4.40
2022-12-23T20:58:56.121Z,4.40
2022-12-23T21:01:31.716Z,4.40
2022-12-23T21:04:01.270Z,4.40
2022-12-23T21:06:29.785Z,4.40
2022-12-23T21:08:59.476Z,4.40
2022-12-23T21:11:34.506Z,4.40
2022-12-23T21:14:06.467Z,4.40
2022-12-23T21:16:35.726Z,4.40
2022-12-23T21:19:03.645Z,4.40
2022-12-23T21:21:31.788Z,4.40
2022-12-23T21:24:01.592Z,4.40
2022-12-23T21:26:30.949Z,4.40
2022-12-23T21:28:59.473Z,4.40
2022-12-23T21:31:27.849Z,4.40
2022-12-23T21:33:55.066Z,4.40
2022-12-23T21:36:24.343Z,4.40
2022-12-23T21:38:51.767Z,4.30
2022-12-23T21:41:24.579Z,4.30
2022-12-23T21:43:51.933Z,4.20
2022-12-23T21:46:21.556Z,4.20
2022-12-23T21:48:51.073Z,4.20
2022-12-23T21:51:23.651Z,4.10
2022-12-23T21:53:53.125Z,4.10
2022-12-23T21:56:26.870Z,4.10
2022-12-23T21:58:58.814Z,4.00
2022-12-23T22:01:26.618Z,4.00
2022-12-23T22:03:54.652Z,3.90
2022-12-23T22:06:27.427Z,3.90
2022-12-23T22:08:57.758Z,3.90
2022-12-23T22:11:27.371Z,3.90
2022-12-23T22:13:56.598Z,3.80
2022-12-23T22:16:26.143Z,3.90
2022-12-23T22:18:54.566Z,3.80
2022-12-23T22:21:23.806Z,3.80
2022-12-23T22:24:02.452Z,3.90
2022-12-23T22:26:32.754Z,3.80
2022-12-23T22:29:01.907Z,3.90
2022-12-23T22:31:34.982Z,3.90
2022-12-23T22:34:02.395Z,3.90
2022-12-23T22:36:33.742Z,3.90
2022-12-23T22:39:24.203Z,3.90
2022-12-23T22:42:46.197Z,3.90
2022-12-23T22:45:13.435Z,4.00
2022-12-23T22:47:40.767Z,4.00
2022-12-23T22:50:09.364Z,4.00
2022-12-23T22:52:41.109Z,4.00
2022-12-23T22:55:08.595Z,4.00
2022-12-23T22:57:35.506Z,4.00
2022-12-23T23:00:07.892Z,4.00
2022-12-23T23:02:38.689Z,4.00
2022-12-23T23:05:12.301Z,4.00
2022-12-23T23:07:40.358Z,4.00
2022-12-23T23:10:10.489Z,4.00
2022-12-23T23:12:37.387Z,3.90
2022-12-23T23:15:41.834Z,3.90
2022-12-23T23:21:35.086Z,3.90
2022-12-23T23:24:02.045Z,3.90
2022-12-23T23:26:29.089Z,3.90
2022-12-23T23:33:03.918Z,3.90
2022-12-23T23:35:31.451Z,3.90
2022-12-23T23:37:59.815Z,3.90
2022-12-23T23:40:27.912Z,3.90
2022-12-23T23:42:55.155Z,3.90
2022-12-23T23:45:22.962Z,3.90
2022-12-23T23:47:50.343Z,4.00
2022-12-23T23:50:19.325Z,4.00
2022-12-23T23:52:46.343Z,4.00
2022-12-23T23:55:13.479Z,4.00
2022-12-23T23:57:40.820Z,3.90
